Time;durP1;ratioP1;P1;durP2;ratioP2;P2;SDS_P1;SDS_P2;PMS_P1;PMS_P2;Temp;Humidity;BMP_temperature;BMP_pressure;BME280_temperature;BME280_humidity;BME280_pressure;Samples;Min_cycle;Max_cycle;Signal;HPM_P1;HPM_P2
2024/01/02 00:00:19;;;;;;;271.70;154.97;;;;;;;;;;5176927;27;320384;-80
2024/01/02 00:02:45;;;;;;;256.60;147.53;;;;;;;;;;5184184;27;319642;-82
2024/01/02 00:05:12;;;;;;;251.27;144.90;;;;;;;;;;5176807;27;320247;-81
2024/01/02 00:07:40;;;;;;;236.87;134.33;;;;;;;;;;5186430;27;360064;-80
2024/01/02 00:10:10;;;;;;;241.00;136.63;;;;;;;;;;5190001;27;320153;-80
2024/01/02 00:12:36;;;;;;;243.57;136.17;;;;;;;;;;5167571;27;320354;-80
2024/01/02 00:15:04;;;;;;;252.93;146.77;;;;;;;;;;5187027;27;320186;-79
2024/01/02 00:17:30;;;;;;;256.37;148.57;;;;;;;;;;5178060;27;320245;-80
2024/01/02 00:19:57;;;;;;;263.03;150.17;;;;;;;;;;5161689;27;319540;-80
2024/01/02 00:22:24;;;;;;;269.57;154.33;;;;;;;;;;5171748;27;355658;-80
2024/01/02 00:24:50;;;;;;;257.80;148.70;;;;;;;;;;5187089;27;319671;-80
2024/01/02 00:27:19;;;;;;;264.97;149.67;;;;;;;;;;5183888;27;319449;-80
2024/01/02 00:29:45;;;;;;;254.73;147.40;;;;;;;;;;5206850;27;318294;-79
2024/01/02 00:32:15;;;;;;;269.07;146.07;;;;;;;;;;5200365;27;318347;-79
2024/01/02 00:34:41;;;;;;;257.77;142.77;;;;;;;;;;5200690;27;318782;-80
2024/01/02 00:37:10;;;;;;;253.10;143.63;;;;;;;;;;5195278;27;319292;-80
2024/01/02 00:39:36;;;;;;;270.60;143.93;;;;;;;;;;5179726;27;320131;-80
2024/01/02 00:42:03;;;;;;;259.60;144.53;;;;;;;;;;5189112;27;320334;-80
2024/01/02 00:44:31;;;;;;;236.43;134.70;;;;;;;;;;5170009;27;320195;-80
2024/01/02 00:46:58;;;;;;;240.30;136.70;;;;;;;;;;5190030;27;319667;-80
2024/01/02 00:49:25;;;;;;;239.13;132.50;;;;;;;;;;5176262;27;319489;-79
2024/01/02 00:51:52;;;;;;;217.17;128.77;;;;;;;;;;5189817;27;319961;-79
2024/01/02 00:54:21;;;;;;;240.37;133.43;;;;;;;;;;5167686;27;319966;-80
2024/01/02 00:56:48;;;;;;;250.33;136.80;;;;;;;;;;5186422;27;319812;-80
2024/01/02 00:59:15;;;;;;;254.50;137.07;;;;;;;;;;5176506;27;320115;-80
2024/01/02 01:01:43;;;;;;;246.50;136.40;;;;;;;;;;5186223;27;320160;-80
2024/01/02 01:04:10;;;;;;;248.43;137.67;;;;;;;;;;5188014;27;320139;-80
2024/01/02 01:06:37;;;;;;;285.10;150.70;;;;;;;;;;5165266;27;417439;-81
2024/01/02 01:09:03;;;;;;;242.53;132.67;;;;;;;;;;5186867;27;320519;-80
2024/01/02 01:11:30;;;;;;;240.27;134.93;;;;;;;;;;5176926;27;320208;-80
2024/01/02 01:13:57;;;;;;;240.83;133.70;;;;;;;;;;5187215;27;345477;-81
2024/01/02 01:16:25;;;;;;;242.43;134.07;;;;;;;;;;5151383;27;320525;-80
2024/01/02 01:18:53;;;;;;;236.83;134.90;;;;;;;;;;5189920;27;320013;-80
2024/01/02 01:21:20;;;;;;;230.67;127.70;;;;;;;;;;5177556;27;320143;-79
2024/01/02 01:23:46;;;;;;;236.90;133.77;;;;;;;;;;5190650;27;319863;-79
2024/01/02 01:26:13;;;;;;;220.10;126.93;;;;;;;;;;5178280;27;320360;-79
2024/01/02 01:28:40;;;;;;;212.43;126.03;;;;;;;;;;5179503;27;356039;-80
2024/01/02 01:31:07;;;;;;;232.50;131.70;;;;;;;;;;5188726;27;320458;-80
2024/01/02 01:33:34;;;;;;;235.27;129.50;;;;;;;;;;5180187;27;319559;-80
2024/01/02 01:36:02;;;;;;;243.77;131.30;;;;;;;;;;5189809;27;320330;-79
2024/01/02 01:38:28;;;;;;;244.93;133.70;;;;;;;;;;5171837;27;319578;-79
2024/01/02 01:40:55;;;;;;;223.63;127.53;;;;;;;;;;5189096;27;321008;-79
2024/01/02 01:43:22;;;;;;;225.33;126.83;;;;;;;;;;5176085;27;351829;-80
2024/01/02 01:45:49;;;;;;;230.67;126.57;;;;;;;;;;5191115;27;320489;-80
2024/01/02 01:48:16;;;;;;;221.63;128.43;;;;;;;;;;5178853;27;319572;-79
2024/01/02 01:50:43;;;;;;;219.73;125.83;;;;;;;;;;5181186;27;320292;-80
2024/01/02 01:53:11;;;;;;;227.63;128.97;;;;;;;;;;5191409;27;319910;-81
2024/01/02 01:55:38;;;;;;;215.60;123.73;;;;;;;;;;5174237;27;420959;-81
2024/01/02 01:58:05;;;;;;;224.93;125.03;;;;;;;;;;5190542;27;319530;-80
2024/01/02 02:00:34;;;;;;;224.73;126.40;;;;;;;;;;5169013;27;320365;-79
2024/01/02 02:05:47;;;;;;;218.80;121.23;;;;;;;;;;5145047;27;391733;-80
2024/01/02 02:08:15;;;;;;;220.70;117.67;;;;;;;;;;5178081;27;320251;-80
2024/01/02 02:10:42;;;;;;;198.57;117.03;;;;;;;;;;5181247;27;320273;-80
2024/01/02 02:13:08;;;;;;;200.57;118.50;;;;;;;;;;5191570;27;320244;-79
2024/01/02 02:15:38;;;;;;;227.50;127.53;;;;;;;;;;5167772;27;320191;-79
2024/01/02 02:18:05;;;;;;;231.37;139.60;;;;;;;;;;5188425;27;320212;-80
2024/01/02 02:20:32;;;;;;;247.23;143.20;;;;;;;;;;5170955;27;320139;-80
2024/01/02 02:23:00;;;;;;;296.50;164.57;;;;;;;;;;5190901;27;319643;-80
2024/01/02 02:25:27;;;;;;;298.70;165.33;;;;;;;;;;5178722;27;320292;-80
2024/01/02 02:27:54;;;;;;;280.67;158.93;;;;;;;;;;5186376;27;319483;-80
2024/01/02 02:30:21;;;;;;;292.80;161.00;;;;;;;;;;5177316;27;320243;-81
2024/01/02 02:32:47;;;;;;;268.70;154.20;;;;;;;;;;5182674;27;319629;-80
2024/01/02 02:35:14;;;;;;;279.17;157.57;;;;;;;;;;5177530;27;320215;-80
2024/01/02 02:37:41;;;;;;;276.00;156.83;;;;;;;;;;5189862;27;319928;-79
2024/01/02 02:40:11;;;;;;;272.67;157.00;;;;;;;;;;5191679;27;320715;-80
2024/01/02 02:42:37;;;;;;;274.57;155.97;;;;;;;;;;5168281;27;419982;-80
2024/01/02 02:45:10;;;;;;;261.77;153.13;;;;;;;;;;5190534;27;319949;-81
2024/01/02 02:47:38;;;;;;;249.77;143.83;;;;;;;;;;5183507;27;419780;-79
2024/01/02 02:50:06;;;;;;;250.43;148.73;;;;;;;;;;5194210;27;318488;-79
2024/01/02 02:52:34;;;;;;;255.13;144.60;;;;;;;;;;5173929;27;319029;-80
2024/01/02 02:55:03;;;;;;;259.87;143.47;;;;;;;;;;5206142;27;318714;-79
2024/01/02 02:57:33;;;;;;;251.93;144.07;;;;;;;;;;5190418;27;318299;-79
2024/01/02 03:00:00;;;;;;;234.43;138.43;;;;;;;;;;5207182;27;318877;-79
2024/01/02 03:02:28;;;;;;;247.03;143.27;;;;;;;;;;5173769;27;319510;-80
2024/01/02 03:05:05;;;;;;;294.60;156.63;;;;;;;;;;5187457;27;319575;-80
2024/01/02 03:07:34;;;;;;;298.97;166.77;;;;;;;;;;5164020;27;319934;-80
2024/01/02 03:10:07;;;;;;;306.43;169.53;;;;;;;;;;5174296;27;318758;-79
2024/01/02 03:12:35;;;;;;;314.10;174.83;;;;;;;;;;5157217;27;319736;-81
2024/01/02 03:15:02;;;;;;;308.67;173.47;;;;;;;;;;5186029;27;320249;-79
2024/01/02 03:17:29;;;;;;;327.87;175.93;;;;;;;;;;5175357;27;320156;-80
2024/01/02 03:19:56;;;;;;;299.73;168.57;;;;;;;;;;5185689;27;319457;-81
2024/01/02 03:22:22;;;;;;;307.73;171.30;;;;;;;;;;5166214;27;320599;-80
2024/01/02 03:24:49;;;;;;;291.30;163.90;;;;;;;;;;5185340;27;320148;-80
2024/01/02 03:27:16;;;;;;;298.97;168.23;;;;;;;;;;5176645;27;320348;-82
2024/01/02 03:29:44;;;;;;;281.33;164.30;;;;;;;;;;5188582;27;320131;-80
2024/01/02 03:32:10;;;;;;;290.93;163.83;;;;;;;;;;5188826;27;320331;-81
2024/01/02 03:34:41;;;;;;;298.17;168.43;;;;;;;;;;5160813;27;419407;-80
2024/01/02 03:37:09;;;;;;;294.60;166.87;;;;;;;;;;5168983;27;318723;-80
2024/01/02 03:39:38;;;;;;;271.07;157.37;;;;;;;;;;5182906;27;318302;-80
2024/01/02 03:42:08;;;;;;;272.57;156.00;;;;;;;;;;5204126;27;349986;-80
2024/01/02 03:44:37;;;;;;;286.07;155.63;;;;;;;;;;5186537;27;318224;-80
2024/01/02 03:47:06;;;;;;;283.93;160.50;;;;;;;;;;5204921;27;318309;-80
2024/01/02 03:49:35;;;;;;;271.40;156.03;;;;;;;;;;5193408;27;319948;-80
2024/01/02 03:52:06;;;;;;;264.00;152.43;;;;;;;;;;5202127;27;319851;-80
2024/01/02 03:54:34;;;;;;;258.53;152.07;;;;;;;;;;5168037;27;320129;-80
2024/01/02 03:57:01;;;;;;;263.53;152.87;;;;;;;;;;5187351;27;329639;-80
2024/01/02 03:59:28;;;;;;;269.10;152.73;;;;;;;;;;5172970;27;320132;-81
2024/01/02 04:01:54;;;;;;;260.70;150.90;;;;;;;;;;5185128;27;321208;-80
2024/01/02 04:04:22;;;;;;;252.50;150.73;;;;;;;;;;5169774;27;328428;-80
2024/01/02 04:06:49;;;;;;;259.27;149.70;;;;;;;;;;5182433;27;319865;-80
2024/01/02 04:09:19;;;;;;;257.33;152.73;;;;;;;;;;5170363;27;345711;-80
2024/01/02 04:11:49;;;;;;;265.67;156.73;;;;;;;;;;5176043;27;318927;-80
2024/01/02 04:14:16;;;;;;;275.67;153.47;;;;;;;;;;5172948;27;319868;-80
2024/01/02 04:16:45;;;;;;;272.80;159.47;;;;;;;;;;5176452;27;358075;-80
2024/01/02 04:19:12;;;;;;;267.47;157.90;;;;;;;;;;5175088;27;328444;-80
2024/01/02 04:21:40;;;;;;;291.40;166.50;;;;;;;;;;5163725;27;320248;-80
2024/01/02 04:24:07;;;;;;;269.00;155.07;;;;;;;;;;5186385;27;320149;-80
2024/01/02 04:26:34;;;;;;;278.33;158.87;;;;;;;;;;5168728;27;320281;-80
2024/01/02 04:29:01;;;;;;;285.53;160.10;;;;;;;;;;5186442;27;320116;-80
2024/01/02 04:31:28;;;;;;;272.00;157.67;;;;;;;;;;5175251;27;320431;-81
2024/01/02 04:33:54;;;;;;;279.77;158.47;;;;;;;;;;5185434;27;320652;-81
2024/01/02 04:36:22;;;;;;;282.87;161.23;;;;;;;;;;5174531;27;326012;-80
2024/01/02 04:38:50;;;;;;;262.30;152.73;;;;;;;;;;5180803;27;320577;-80
2024/01/02 04:41:16;;;;;;;247.40;148.43;;;;;;;;;;5174044;27;320609;-80
2024/01/02 04:43:43;;;;;;;251.00;145.47;;;;;;;;;;5185510;27;331324;-80
2024/01/02 04:46:14;;;;;;;243.37;144.80;;;;;;;;;;5178455;27;318667;-80
2024/01/02 04:48:41;;;;;;;249.63;146.67;;;;;;;;;;5163570;27;420022;-80
2024/01/02 04:51:11;;;;;;;231.10;137.53;;;;;;;;;;5186436;27;320319;-80
2024/01/02 04:53:49;;;;;;;242.00;142.03;;;;;;;;;;5160085;27;420564;-80
2024/01/02 04:56:25;;;;;;;245.77;143.97;;;;;;;;;;5162625;27;319753;-79
2024/01/02 04:58:51;;;;;;;239.90;147.23;;;;;;;;;;5186489;27;319486;-81
2024/01/02 05:01:18;;;;;;;249.57;145.37;;;;;;;;;;5173661;27;346853;-80
2024/01/02 05:03:45;;;;;;;248.33;144.83;;;;;;;;;;5179197;27;321197;-80
2024/01/02 05:06:11;;;;;;;252.40;147.23;;;;;;;;;;5174957;27;320514;-81
2024/01/02 05:08:38;;;;;;;223.77;130.73;;;;;;;;;;5187358;27;320380;-80
2024/01/02 05:11:05;;;;;;;195.70;120.27;;;;;;;;;;5176264;27;320337;-80
2024/01/02 05:13:44;;;;;;;217.77;127.87;;;;;;;;;;5169001;27;320861;-80
2024/01/02 05:16:12;;;;;;;224.97;130.17;;;;;;;;;;5151714;27;337749;-80
2024/01/02 05:18:38;;;;;;;233.33;131.70;;;;;;;;;;5175659;27;320221;-80
2024/01/02 05:21:07;;;;;;;226.10;132.83;;;;;;;;;;5174417;27;320528;-80
2024/01/02 05:23:42;;;;;;;232.13;132.53;;;;;;;;;;5178100;27;320427;-80
2024/01/02 05:26:09;;;;;;;204.67;127.77;;;;;;;;;;5174968;27;320476;-80
2024/01/02 05:28:37;;;;;;;225.10;134.13;;;;;;;;;;5186943;27;320333;-81
2024/01/02 05:31:04;;;;;;;219.57;128.23;;;;;;;;;;5172339;27;320124;-80
2024/01/02 05:33:31;;;;;;;220.27;130.30;;;;;;;;;;5177926;27;319848;-80
2024/01/02 05:36:02;;;;;;;225.93;133.90;;;;;;;;;;5178626;27;320437;-80
2024/01/02 05:38:30;;;;;;;228.70;135.47;;;;;;;;;;5125875;27;420411;-80
2024/01/02 05:40:57;;;;;;;227.77;136.13;;;;;;;;;;5181064;27;320395;-80
2024/01/02 05:43:24;;;;;;;228.33;137.23;;;;;;;;;;5171020;27;320814;-81
2024/01/02 05:45:52;;;;;;;235.73;138.00;;;;;;;;;;5189316;27;320534;-80
2024/01/02 05:48:19;;;;;;;221.03;134.40;;;;;;;;;;5177614;27;320300;-80
2024/01/02 05:50:45;;;;;;;261.30;151.63;;;;;;;;;;5169987;27;319711;-81
2024/01/02 05:53:12;;;;;;;327.67;195.20;;;;;;;;;;5178395;27;320876;-80
2024/01/02 05:55:39;;;;;;;308.23;179.00;;;;;;;;;;5183392;27;320442;-80
2024/01/02 05:58:05;;;;;;;264.13;159.07;;;;;;;;;;5177430;27;320839;-81
2024/01/02 06:00:43;;;;;;;245.70;147.50;;;;;;;;;;5180989;27;318872;-80
2024/01/02 06:03:15;;;;;;;211.73;132.53;;;;;;;;;;5165410;27;335297;-79
2024/01/02 06:05:49;;;;;;;223.87;133.97;;;;;;;;;;5160246;27;318828;-81
2024/01/02 06:08:16;;;;;;;205.07;122.33;;;;;;;;;;5152986;27;320525;-81
2024/01/02 06:10:42;;;;;;;209.67;125.77;;;;;;;;;;5181129;27;351460;-80
2024/01/02 06:13:09;;;;;;;216.07;128.53;;;;;;;;;;5178323;27;320532;-80
2024/01/02 06:15:36;;;;;;;218.83;131.23;;;;;;;;;;5182240;27;320411;-81
2024/01/02 06:18:03;;;;;;;224.90;130.87;;;;;;;;;;5187779;27;320340;-80
2024/01/02 06:20:31;;;;;;;220.90;125.53;;;;;;;;;;5189274;27;321275;-81
2024/01/02 06:22:58;;;;;;;186.70;116.37;;;;;;;;;;5187637;27;320239;-79
2024/01/02 06:25:25;;;;;;;208.07;123.87;;;;;;;;;;5168881;27;320366;-80
2024/01/02 06:27:54;;;;;;;191.93;120.83;;;;;;;;;;5189206;27;320550;-80
2024/01/02 06:30:25;;;;;;;184.93;112.03;;;;;;;;;;5167156;27;319946;-80
2024/01/02 06:32:53;;;;;;;203.53;119.87;;;;;;;;;;5169344;27;318909;-80
2024/01/02 06:35:21;;;;;;;204.80;124.27;;;;;;;;;;5140793;27;320332;-80
2024/01/02 06:37:48;;;;;;;250.77;141.77;;;;;;;;;;5157039;27;319344;-80
2024/01/02 06:40:15;;;;;;;185.17;115.87;;;;;;;;;;5177521;27;319762;-80
2024/01/02 06:42:42;;;;;;;177.90;113.30;;;;;;;;;;5190919;27;320152;-80
2024/01/02 06:45:13;;;;;;;190.70;116.03;;;;;;;;;;5155259;27;320465;-80
2024/01/02 06:50:23;;;;;;;183.33;107.70;;;;;;;;;;5166956;27;321060;-80
2024/01/02 06:52:53;;;;;;;175.87;103.13;;;;;;;;;;5190909;27;320612;-80
2024/01/02 06:55:22;;;;;;;153.53;96.13;;;;;;;;;;5169597;27;336440;-80
2024/01/02 06:57:49;;;;;;;189.40;114.47;;;;;;;;;;5190384;27;319373;-80
2024/01/02 07:00:17;;;;;;;186.10;115.97;;;;;;;;;;5178205;27;320222;-81
2024/01/02 07:02:44;;;;;;;196.93;119.00;;;;;;;;;;5191566;27;320139;-80
2024/01/02 07:05:14;;;;;;;184.10;113.07;;;;;;;;;;5188104;27;320283;-79
2024/01/02 07:07:41;;;;;;;186.73;113.20;;;;;;;;;;5196197;27;320131;-80
2024/01/02 07:10:09;;;;;;;187.07;113.17;;;;;;;;;;5193635;27;319066;-80
2024/01/02 07:12:36;;;;;;;199.03;115.70;;;;;;;;;;5207087;27;318754;-79
2024/01/02 07:15:05;;;;;;;184.03;119.00;;;;;;;;;;5179380;27;320547;-80
2024/01/02 07:17:31;;;;;;;177.83;112.10;;;;;;;;;;5182093;27;320366;-80
2024/01/02 07:19:59;;;;;;;168.37;107.57;;;;;;;;;;5188513;27;319672;-79
2024/01/02 07:22:26;;;;;;;173.03;107.60;;;;;;;;;;5172313;27;320252;-79
2024/01/02 07:24:53;;;;;;;182.27;110.27;;;;;;;;;;5189199;27;320423;-81
2024/01/02 07:27:21;;;;;;;164.03;106.17;;;;;;;;;;5170481;27;320575;-80
2024/01/02 07:29:48;;;;;;;179.47;109.97;;;;;;;;;;5189849;27;320578;-80
2024/01/02 07:32:15;;;;;;;166.10;110.17;;;;;;;;;;5177956;27;320254;-81
2024/01/02 07:34:42;;;;;;;166.30;109.97;;;;;;;;;;5187965;27;319599;-80
2024/01/02 07:37:09;;;;;;;178.73;115.90;;;;;;;;;;5177311;27;320698;-81
2024/01/02 07:39:35;;;;;;;172.53;109.60;;;;;;;;;;5181356;27;320336;-81
2024/01/02 07:42:02;;;;;;;184.70;117.33;;;;;;;;;;5190093;27;320372;-80
2024/01/02 07:44:30;;;;;;;227.97;134.27;;;;;;;;;;5173058;27;420952;-80
2024/01/02 07:46:57;;;;;;;327.03;189.90;;;;;;;;;;5188433;27;320305;-81
2024/01/02 07:49:24;;;;;;;289.93;184.27;;;;;;;;;;5169088;27;320245;-81
2024/01/02 07:51:51;;;;;;;251.47;156.87;;;;;;;;;;5190075;27;320876;-81
2024/01/02 07:54:18;;;;;;;255.83;163.67;;;;;;;;;;5176618;27;320739;-80
2024/01/02 07:56:45;;;;;;;269.23;177.30;;;;;;;;;;5190342;27;320459;-80
2024/01/02 07:59:15;;;;;;;293.37;200.00;;;;;;;;;;5177726;27;320522;-80
2024/01/02 08:01:43;;;;;;;276.57;182.40;;;;;;;;;;5188160;27;320705;-80
2024/01/02 08:04:10;;;;;;;278.03;182.13;;;;;;;;;;5176296;27;320499;-80
2024/01/02 08:06:36;;;;;;;247.87;169.90;;;;;;;;;;5190991;27;320158;-80
2024/01/02 08:09:03;;;;;;;245.37;161.30;;;;;;;;;;5178509;27;320078;-79
2024/01/02 08:11:30;;;;;;;218.80;144.40;;;;;;;;;;5178849;27;320355;-80
2024/01/02 08:13:57;;;;;;;190.33;126.23;;;;;;;;;;5189146;27;321457;-80
2024/01/02 08:16:24;;;;;;;175.70;117.60;;;;;;;;;;5176525;27;320239;-80
2024/01/02 08:18:52;;;;;;;140.17;98.37;;;;;;;;;;5185123;27;338561;-80
2024/01/02 08:21:19;;;;;;;129.17;86.43;;;;;;;;;;5168959;27;318599;-80
2024/01/02 08:23:47;;;;;;;123.87;86.67;;;;;;;;;;5187054;27;319650;-80
2024/01/02 08:26:14;;;;;;;114.07;77.77;;;;;;;;;;5176731;27;319263;-80
2024/01/02 08:28:41;;;;;;;130.63;81.07;;;;;;;;;;5189776;27;319477;-81
2024/01/02 08:31:08;;;;;;;121.00;82.70;;;;;;;;;;5176923;27;319355;-80
2024/01/02 08:33:35;;;;;;;117.73;80.40;;;;;;;;;;5181783;27;319619;-81
2024/01/02 08:36:03;;;;;;;149.20;98.83;;;;;;;;;;5188959;27;319797;-79
2024/01/02 08:38:30;;;;;;;185.23;112.50;;;;;;;;;;5172580;27;418881;-80
2024/01/02 08:40:57;;;;;;;185.93;118.10;;;;;;;;;;5187561;27;320195;-80
2024/01/02 08:43:23;;;;;;;185.03;119.40;;;;;;;;;;5171926;27;320219;-81
2024/01/02 08:45:50;;;;;;;189.70;121.57;;;;;;;;;;5190234;27;320114;-81
2024/01/02 08:48:17;;;;;;;178.43;117.40;;;;;;;;;;5176394;27;320576;-80
2024/01/02 08:50:43;;;;;;;187.43;118.30;;;;;;;;;;5190289;27;320453;-80
2024/01/02 08:53:13;;;;;;;184.50;122.47;;;;;;;;;;5177851;27;320089;-80
2024/01/02 08:55:40;;;;;;;208.07;131.77;;;;;;;;;;5183438;27;324452;-80
2024/01/02 08:58:07;;;;;;;278.73;170.50;;;;;;;;;;5176952;27;320400;-80
2024/01/02 09:00:34;;;;;;;396.63;221.20;;;;;;;;;;5188293;27;320456;-80
2024/01/02 09:03:00;;;;;;;318.97;185.17;;;;;;;;;;5190411;27;319423;-80
2024/01/02 09:05:27;;;;;;;252.70;159.00;;;;;;;;;;5170656;27;320022;-80
2024/01/02 09:07:54;;;;;;;245.67;148.50;;;;;;;;;;5189410;27;320069;-80
2024/01/02 09:10:23;;;;;;;164.10;113.60;;;;;;;;;;5177860;27;320134;-80
2024/01/02 09:12:49;;;;;;;178.57;111.97;;;;;;;;;;5190700;27;320267;-80
2024/01/02 09:15:16;;;;;;;162.10;106.33;;;;;;;;;;5172227;27;320612;-80
2024/01/02 09:17:43;;;;;;;167.00;106.97;;;;;;;;;;5188549;27;320002;-80
2024/01/02 09:20:11;;;;;;;159.93;106.47;;;;;;;;;;5176718;27;320225;-81
2024/01/02 09:22:38;;;;;;;162.13;107.57;;;;;;;;;;5189034;27;319950;-81
2024/01/02 09:25:05;;;;;;;168.63;109.83;;;;;;;;;;5177540;27;320230;-81
2024/01/02 09:27:36;;;;;;;168.53;112.00;;;;;;;;;;5182342;27;320447;-80
2024/01/02 09:30:04;;;;;;;171.57;116.20;;;;;;;;;;5190268;27;320220;-81
2024/01/02 09:32:32;;;;;;;166.03;117.53;;;;;;;;;;5174916;27;419941;-81
2024/01/02 09:34:58;;;;;;;169.33;117.23;;;;;;;;;;5190020;27;319927;-81
2024/01/02 09:37:26;;;;;;;192.17;125.00;;;;;;;;;;5179424;27;320231;-81
2024/01/02 09:39:53;;;;;;;184.13;123.17;;;;;;;;;;5184762;27;319959;-80
2024/01/02 09:42:36;;;;;;;198.17;130.33;;;;;;;;;;5188805;27;319978;-81
2024/01/02 09:45:11;;;;;;;211.43;140.67;;;;;;;;;;5203097;27;319107;-81
2024/01/02 09:48:00;;;;;;;210.47;139.80;;;;;;;;;;5177703;27;418395;-80
2024/01/02 09:50:33;;;;;;;211.10;141.13;;;;;;;;;;5177744;27;319582;-80
2024/01/02 09:53:20;;;;;;;233.20;150.03;;;;;;;;;;5190574;27;320371;-81
2024/01/02 09:55:54;;;;;;;237.57;154.60;;;;;;;;;;5169155;27;421631;-80
2024/01/02 09:58:30;;;;;;;247.47;165.03;;;;;;;;;;5178331;27;319934;-81
2024/01/02 10:01:07;;;;;;;278.33;185.60;;;;;;;;;;5187499;27;320170;-81
2024/01/02 10:03:53;;;;;;;281.77;189.93;;;;;;;;;;5166651;27;420619;-81
2024/01/02 10:06:38;;;;;;;278.80;184.43;;;;;;;;;;5177122;27;320219;-79
2024/01/02 10:09:26;;;;;;;257.40;173.87;;;;;;;;;;5178131;27;320156;-81
2024/01/02 10:11:59;;;;;;;253.37;176.40;;;;;;;;;;5189418;27;320108;-80
2024/01/02 10:14:32;;;;;;;248.67;169.70;;;;;;;;;;5178303;27;320306;-80
2024/01/02 10:17:10;;;;;;;249.43;173.10;;;;;;;;;;5191519;27;320466;-80
2024/01/02 10:19:46;;;;;;;248.77;169.97;;;;;;;;;;5169270;27;421156;-80
2024/01/02 10:22:22;;;;;;;240.07;166.50;;;;;;;;;;5176742;27;358018;-81
2024/01/02 10:24:53;;;;;;;230.07;161.70;;;;;;;;;;5190519;27;320577;-81
2024/01/02 10:27:27;;;;;;;228.37;160.83;;;;;;;;;;5169503;27;320256;-79
2024/01/02 10:30:03;;;;;;;214.60;147.93;;;;;;;;;;5189511;27;319454;-81
2024/01/02 10:32:42;;;;;;;214.83;146.63;;;;;;;;;;5174388;27;418446;-81
2024/01/02 10:35:16;;;;;;;211.07;140.40;;;;;;;;;;5178687;27;320194;-81
2024/01/02 10:37:54;;;;;;;200.33;142.43;;;;;;;;;;5189864;27;320433;-81
2024/01/02 10:40:23;;;;;;;205.40;138.57;;;;;;;;;;5176181;27;330073;-81
2024/01/02 10:43:12;;;;;;;189.23;133.03;;;;;;;;;;5189636;27;320256;-80
2024/01/02 10:45:48;;;;;;;190.20;127.63;;;;;;;;;;5167373;27;422467;-81
2024/01/02 10:48:32;;;;;;;196.87;134.17;;;;;;;;;;5179186;27;319577;-81
2024/01/02 10:51:04;;;;;;;218.37;150.60;;;;;;;;;;5189045;27;320370;-80
2024/01/02 10:53:45;;;;;;;216.27;144.07;;;;;;;;;;5166716;27;421984;-80
2024/01/02 10:56:15;;;;;;;198.73;138.07;;;;;;;;;;5177932;27;320198;-80
2024/01/02 10:58:58;;;;;;;95.67;69.90;;;;;;;;;;5189291;27;320176;-80
2024/01/02 11:01:27;;;;;;;71.10;51.23;;;;;;;;;;5169425;27;344458;-80
2024/01/02 11:03:58;;;;;;;57.47;44.70;;;;;;;;;;5190346;27;319097;-80
2024/01/02 11:06:35;;;;;;;53.03;36.90;;;;;;;;;;5178213;27;318997;-81
2024/01/02 11:09:06;;;;;;;55.47;36.27;;;;;;;;;;5190503;27;319003;-80
2024/01/02 11:11:37;;;;;;;43.67;32.47;;;;;;;;;;5167101;27;418588;-80
2024/01/02 11:14:06;;;;;;;51.90;34.67;;;;;;;;;;5177717;27;319223;-81
2024/01/02 11:16:39;;;;;;;56.30;39.53;;;;;;;;;;5189541;27;319299;-80
2024/01/02 11:19:08;;;;;;;54.77;39.93;;;;;;;;;;5176939;27;318337;-81
2024/01/02 11:21:42;;;;;;;72.77;48.20;;;;;;;;;;5180310;27;318178;-81
2024/01/02 11:24:16;;;;;;;54.17;39.10;;;;;;;;;;5177333;27;344870;-80
2024/01/02 11:26:44;;;;;;;56.47;38.73;;;;;;;;;;5190694;27;317909;-81
2024/01/02 11:29:17;;;;;;;124.87;71.07;;;;;;;;;;5173312;27;318039;-80
2024/01/02 11:31:49;;;;;;;57.33;39.80;;;;;;;;;;5187549;27;319060;-80
2024/01/02 11:34:37;;;;;;;59.90;41.27;;;;;;;;;;5178595;27;318370;-80
2024/01/02 11:37:13;;;;;;;59.77;42.33;;;;;;;;;;5176727;27;379591;-80
2024/01/02 11:39:52;;;;;;;48.90;35.67;;;;;;;;;;5183057;27;317530;-80
2024/01/02 11:42:29;;;;;;;49.90;36.63;;;;;;;;;;5178824;27;317987;-80
2024/01/02 11:45:08;;;;;;;46.57;36.17;;;;;;;;;;5188265;27;319268;-81
2024/01/02 11:47:43;;;;;;;48.17;33.57;;;;;;;;;;5167319;27;418788;-81
2024/01/02 11:50:11;;;;;;;36.57;28.00;;;;;;;;;;5176636;27;318248;-82
2024/01/02 11:52:51;;;;;;;33.90;25.93;;;;;;;;;;5190503;27;317463;-80
2024/01/02 11:55:31;;;;;;;37.17;27.53;;;;;;;;;;5170306;27;317595;-80
2024/01/02 11:58:15;;;;;;;46.03;32.53;;;;;;;;;;5188723;27;318274;-79
2024/01/02 12:00:52;;;;;;;57.67;39.60;;;;;;;;;;5170493;27;419818;-79
2024/01/02 12:03:32;;;;;;;36.83;27.63;;;;;;;;;;5188720;27;342422;-80
2024/01/02 12:06:07;;;;;;;34.80;25.90;;;;;;;;;;5166138;27;418691;-81
2024/01/02 12:08:45;;;;;;;39.50;28.07;;;;;;;;;;5177448;27;317998;-81
2024/01/02 12:11:17;;;;;;;46.47;32.83;;;;;;;;;;5189975;27;318351;-81
2024/01/02 12:13:58;;;;;;;40.85;29.90;;;;;;;;;;5168926;27;336423;-80
2024/01/02 12:16:29;;;;;;;41.23;30.83;;;;;;;;;;5177701;27;319363;-80
2024/01/02 12:18:58;;;;;;;40.33;28.20;;;;;;;;;;5187971;27;319160;-80
2024/01/02 12:21:28;;;;;;;29.90;22.27;;;;;;;;;;5176906;27;319297;-82
2024/01/02 12:23:55;;;;;;;26.50;20.70;;;;;;;;;;5179843;27;319322;-82
2024/01/02 12:26:26;;;;;;;26.37;19.83;;;;;;;;;;5170297;27;319215;-81
2024/01/02 12:28:54;;;;;;;29.10;22.17;;;;;;;;;;5174917;27;419637;-80
2024/01/02 12:31:30;;;;;;;298.63;164.00;;;;;;;;;;5185802;27;318503;-80
2024/01/02 12:34:10;;;;;;;25.60;19.77;;;;;;;;;;5166916;27;420989;-80
2024/01/02 12:36:43;;;;;;;24.30;14.43;;;;;;;;;;5177388;27;319265;-81
2024/01/02 12:39:13;;;;;;;25.23;17.77;;;;;;;;;;5184495;27;319203;-80
2024/01/02 12:41:44;;;;;;;21.10;14.83;;;;;;;;;;5166978;27;319070;-79
2024/01/02 12:44:13;;;;;;;25.87;18.00;;;;;;;;;;5185788;27;319029;-80
2024/01/02 12:46:49;;;;;;;20.60;13.47;;;;;;;;;;5177944;27;319132;-80
2024/01/02 12:49:20;;;;;;;26.73;18.73;;;;;;;;;;5188523;27;318541;-80
2024/01/02 12:51:47;;;;;;;40.20;24.33;;;;;;;;;;5171212;27;319183;-81
2024/01/02 12:54:20;;;;;;;32.57;21.27;;;;;;;;;;5189326;27;318464;-80
2024/01/02 12:56:54;;;;;;;49.10;28.70;;;;;;;;;;5180032;27;319135;-80
2024/01/02 12:59:21;;;;;;;35.30;17.23;;;;;;;;;;5191357;27;319070;-81
2024/01/02 13:01:49;;;;;;;27.70;16.93;;;;;;;;;;5175723;27;331033;-80
2024/01/02 13:04:17;;;;;;;18.40;12.30;;;;;;;;;;5202705;27;318154;-81
2024/01/02 13:06:46;;;;;;;20.40;14.93;;;;;;;;;;5189411;27;318790;-80
2024/01/02 13:09:16;;;;;;;26.27;17.63;;;;;;;;;;5207586;27;317773;-78
2024/01/02 13:11:43;;;;;;;16.53;11.43;;;;;;;;;;5186665;27;317572;-80
2024/01/02 13:14:11;;;;;;;14.07;11.03;;;;;;;;;;5202004;27;318893;-82
2024/01/02 13:16:39;;;;;;;19.07;13.73;;;;;;;;;;5182137;27;319311;-80
2024/01/02 13:19:06;;;;;;;25.33;16.57;;;;;;;;;;5192225;27;318525;-79
2024/01/02 13:21:37;;;;;;;24.07;16.67;;;;;;;;;;5179238;27;319170;-80
2024/01/02 13:24:08;;;;;;;20.37;15.43;;;;;;;;;;5186098;27;319132;-81
2024/01/02 13:26:41;;;;;;;28.87;17.30;;;;;;;;;;5182310;27;319237;-80
2024/01/02 13:29:10;;;;;;;31.43;19.97;;;;;;;;;;5190972;27;318381;-80
2024/01/02 13:31:37;;;;;;;28.03;19.03;;;;;;;;;;5174558;27;319147;-80
2024/01/02 13:34:04;;;;;;;21.93;17.23;;;;;;;;;;5188836;27;319189;-81
2024/01/02 13:36:31;;;;;;;32.43;21.83;;;;;;;;;;5178551;27;319137;-80
2024/01/02 13:39:00;;;;;;;80.37;42.20;;;;;;;;;;5190702;27;319157;-79
2024/01/02 13:41:28;;;;;;;138.03;74.23;;;;;;;;;;5180129;27;319480;-80
2024/01/02 13:44:08;;;;;;;195.20;103.07;;;;;;;;;;5185758;27;319363;-81
2024/01/02 13:46:36;;;;;;;139.13;84.07;;;;;;;;;;5178040;27;321795;-81
2024/01/02 13:49:03;;;;;;;74.57;49.53;;;;;;;;;;5190224;27;321279;-80
2024/01/02 13:51:30;;;;;;;48.57;34.90;;;;;;;;;;5180929;27;319159;-80
2024/01/02 13:54:00;;;;;;;48.27;32.07;;;;;;;;;;5185014;27;319357;-80
2024/01/02 13:56:28;;;;;;;34.23;24.37;;;;;;;;;;5173342;27;362786;-80
2024/01/02 13:59:03;;;;;;;37.70;25.33;;;;;;;;;;5190077;27;319301;-80
2024/01/02 14:01:32;;;;;;;22.63;18.17;;;;;;;;;;5178091;27;319536;-80
2024/01/02 14:03:59;;;;;;;27.10;19.60;;;;;;;;;;5185227;27;319529;-81